createdAt,value
2023-05-04T00:01:02.919Z,12.46
2023-05-04T00:04:06.086Z,12.44
2023-05-04T00:07:10.083Z,12.32
2023-05-04T00:10:13.540Z,12.28
2023-05-04T00:13:16.637Z,12.30
2023-05-04T00:16:19.621Z,12.33
2023-05-04T00:19:22.420Z,12.35
2023-05-04T00:22:25.641Z,12.39
2023-05-04T00:25:28.180Z,12.34
2023-05-04T00:28:33.034Z,12.30
2023-05-04T00:31:35.645Z,12.27
2023-05-04T00:34:38.401Z,12.24
2023-05-04T00:37:41.047Z,12.19
2023-05-04T00:40:44.306Z,12.13
2023-05-04T00:43:47.521Z,12.09
2023-05-04T00:46:52.570Z,12.02
2023-05-04T00:49:55.975Z,12.04
2023-05-04T00:53:01.536Z,12.00
2023-05-04T00:56:06.217Z,12.04
2023-05-04T00:59:09.760Z,12.05
2023-05-04T01:02:12.376Z,12.09
2023-05-04T01:05:15.562Z,12.17
2023-05-04T01:08:21.614Z,12.09
2023-05-04T01:11:33.804Z,12.07
2023-05-04T01:14:37.312Z,12.08
2023-05-04T01:17:40.273Z,12.12
2023-05-04T01:20:44.333Z,12.11
2023-05-04T01:23:47.182Z,12.14
2023-05-04T01:26:55.728Z,12.12
2023-05-04T01:30:22.664Z,12.17
2023-05-04T01:33:28.242Z,12.11
2023-05-04T01:36:32.964Z,12.07
2023-05-04T01:39:35.797Z,12.04
2023-05-04T01:42:38.621Z,12.02
2023-05-04T01:45:41.142Z,12.01
2023-05-04T01:48:44.121Z,11.98
2023-05-04T01:51:46.882Z,11.97
2023-05-04T01:54:49.783Z,11.92
2023-05-04T01:57:52.362Z,11.92
2023-05-04T02:00:59.222Z,11.94
2023-05-04T02:04:03.438Z,12.08
2023-05-04T02:07:06.190Z,12.09
2023-05-04T02:10:09.991Z,12.05
2023-05-04T02:13:13.792Z,12.06
2023-05-04T02:16:17.052Z,12.11
2023-05-04T02:19:20.012Z,12.07
2023-05-04T02:22:22.810Z,12.11
2023-05-04T02:25:27.651Z,12.09
2023-05-04T02:28:31.072Z,12.09
2023-05-04T02:31:34.258Z,12.09
2023-05-04T02:34:37.526Z,11.96
2023-05-04T02:37:40.312Z,11.91
2023-05-04T02:40:43.364Z,11.79
2023-05-04T02:43:46.754Z,11.65
2023-05-04T02:46:49.228Z,11.65
2023-05-04T02:49:52.145Z,11.62
2023-05-04T02:52:54.657Z,11.55
2023-05-04T02:55:57.603Z,11.51
2023-05-04T02:59:00.161Z,11.46
2023-05-04T03:02:03.114Z,11.42
2023-05-04T03:05:06.497Z,11.38
2023-05-04T03:08:09.379Z,11.37
2023-05-04T03:11:16.489Z,11.38
2023-05-04T03:14:19.396Z,11.43
2023-05-04T03:17:21.971Z,11.32
2023-05-04T03:20:25.433Z,11.30
2023-05-04T03:23:28.057Z,11.31
2023-05-04T03:26:31.786Z,11.29
2023-05-04T03:29:34.369Z,11.32
2023-05-04T03:32:37.704Z,11.37
2023-05-04T03:35:40.327Z,11.39
2023-05-04T03:38:43.290Z,11.50
2023-05-04T03:41:46.015Z,11.53
2023-05-04T03:44:48.989Z,11.62
2023-05-04T03:47:51.569Z,11.71
2023-05-04T03:50:58.183Z,11.79
2023-05-04T03:54:01.470Z,11.82
2023-05-04T03:57:04.573Z,11.90
2023-05-04T04:00:09.063Z,12.02
2023-05-04T04:03:17.681Z,11.98
2023-05-04T04:06:20.790Z,11.91
2023-05-04T04:09:23.500Z,11.83
2023-05-04T04:12:27.401Z,11.75
2023-05-04T04:15:29.913Z,11.71
2023-05-04T04:18:33.090Z,11.77
2023-05-04T04:21:36.234Z,11.77
2023-05-04T04:24:39.097Z,11.91
2023-05-04T04:27:41.692Z,11.88
2023-05-04T04:30:48.833Z,11.94
2023-05-04T04:33:51.542Z,11.80
2023-05-04T04:36:54.450Z,11.89
2023-05-04T04:39:56.985Z,12.05
2023-05-04T04:42:59.999Z,12.00
2023-05-04T04:46:04.094Z,12.12
2023-05-04T04:49:07.286Z,12.24
2023-05-04T04:52:11.836Z,12.26
2023-05-04T04:55:16.895Z,12.32
2023-05-04T04:58:19.410Z,12.37
2023-05-04T05:01:22.739Z,12.33
2023-05-04T05:04:25.310Z,12.39
2023-05-04T05:07:28.247Z,12.39
2023-05-04T05:10:38.664Z,12.45
2023-05-04T05:13:41.619Z,12.46
2023-05-04T05:16:44.234Z,12.63
2023-05-04T05:19:47.174Z,12.68
2023-05-04T05:22:50.427Z,12.63
2023-05-04T05:25:53.338Z,12.69
2023-05-04T05:28:57.005Z,12.86
2023-05-04T05:31:59.859Z,13.05
2023-05-04T05:35:02.335Z,13.00
2023-05-04T05:38:05.415Z,13.08
2023-05-04T05:41:09.810Z,13.28
2023-05-04T05:44:13.352Z,13.32
2023-05-04T05:47:15.882Z,13.44
2023-05-04T05:50:19.054Z,13.46
2023-05-04T05:53:21.535Z,13.54
2023-05-04T05:56:24.401Z,13.75
2023-05-04T05:59:27.680Z,13.67
2023-05-04T06:02:30.584Z,13.54
2023-05-04T06:05:36.530Z,13.93
2023-05-04T06:08:39.065Z,13.85
2023-05-04T06:11:42.712Z,13.67
2023-05-04T06:14:45.325Z,13.73
2023-05-04T06:17:49.937Z,13.88
2023-05-04T06:21:01.332Z,14.14
2023-05-04T06:24:04.548Z,14.27
2023-05-04T06:27:07.425Z,14.37
2023-05-04T06:30:11.995Z,14.60
2023-05-04T06:33:17.710Z,14.71
2023-05-04T06:36:20.580Z,14.87
2023-05-04T06:39:23.268Z,14.71
2023-05-04T06:42:29.604Z,14.95
2023-05-04T06:45:36.204Z,15.14
2023-05-04T06:48:39.080Z,15.27
2023-05-04T06:51:42.008Z,15.36
2023-05-04T06:54:44.757Z,15.72
2023-05-04T06:57:47.349Z,15.59
2023-05-04T07:00:51.369Z,15.79
2023-05-04T07:03:54.036Z,16.00
2023-05-04T07:06:57.299Z,16.11
2023-05-04T07:10:00.183Z,16.01
2023-05-04T07:13:03.594Z,15.96
2023-05-04T07:16:09.453Z,16.15
2023-05-04T07:19:12.655Z,15.87
2023-05-04T07:22:15.325Z,15.93
2023-05-04T07:25:18.140Z,16.67
2023-05-04T07:28:20.684Z,17.27
2023-05-04T07:31:23.733Z,18.61
2023-05-04T07:34:37.816Z,19.52
2023-05-04T07:37:45.145Z,19.65
2023-05-04T07:40:48.858Z,19.92
2023-05-04T07:43:51.847Z,20.10
2023-05-04T07:46:54.376Z,20.15
2023-05-04T07:49:57.241Z,20.89
2023-05-04T07:52:59.887Z,21.32
2023-05-04T07:56:11.384Z,21.95
2023-05-04T07:59:13.913Z,22.30
2023-05-04T08:02:16.845Z,22.73
2023-05-04T08:05:19.773Z,22.76
2023-05-04T08:08:22.568Z,23.29
2023-05-04T08:11:26.793Z,23.09
2023-05-04T08:14:29.634Z,24.58
2023-05-04T08:17:32.916Z,24.48
2023-05-04T08:20:36.034Z,22.77
2023-05-04T08:23:38.920Z,23.68
2023-05-04T08:26:42.529Z,22.69
2023-05-04T08:29:46.812Z,23.50
2023-05-04T08:32:51.423Z,23.43
2023-05-04T08:35:54.180Z,22.64
2023-05-04T08:38:56.835Z,21.13
2023-05-04T08:42:00.676Z,21.69
2023-05-04T08:45:07.290Z,21.71
2023-05-04T08:48:10.237Z,20.64
2023-05-04T08:51:14.208Z,20.24
2023-05-04T08:54:17.995Z,20.00
2023-05-04T08:57:22.996Z,19.92
2023-05-04T09:00:26.590Z,21.57
2023-05-04T09:03:30.321Z,21.66
2023-05-04T09:06:33.702Z,21.81
2023-05-04T09:09:36.424Z,23.31
2023-05-04T09:12:39.389Z,23.50
2023-05-04T09:15:42.368Z,25.45
2023-05-04T09:18:45.988Z,25.77
2023-05-04T09:21:49.836Z,24.78
2023-05-04T09:24:52.802Z,24.61
2023-05-04T09:27:56.428Z,25.23
2023-05-04T09:31:01.272Z,23.23
2023-05-04T09:34:10.144Z,24.40
2023-05-04T09:37:13.440Z,24.41
2023-05-04T09:40:16.378Z,23.53
2023-05-04T09:43:21.030Z,23.66
2023-05-04T09:46:23.704Z,25.05
2023-05-04T09:49:37.276Z,24.83
2023-05-04T09:52:44.333Z,23.32
2023-05-04T09:55:51.803Z,23.40
2023-05-04T09:58:59.774Z,23.82
2023-05-04T10:02:14.518Z,25.07
2023-05-04T10:05:25.242Z,24.47
2023-05-04T10:08:28.876Z,24.42
2023-05-04T10:11:32.753Z,25.94
2023-05-04T10:14:36.253Z,26.39
2023-05-04T10:18:15.217Z,24.80
2023-05-04T10:21:58.219Z,25.33
2023-05-04T10:25:14.521Z,26.24
2023-05-04T10:28:23.420Z,27.89
2023-05-04T10:31:42.876Z,28.67
2023-05-04T10:34:45.632Z,27.57
2023-05-04T10:37:54.552Z,27.25
2023-05-04T10:40:58.411Z,28.48
2023-05-04T10:44:06.194Z,27.89
2023-05-04T10:47:08.748Z,28.84
2023-05-04T10:50:14.648Z,29.64
2023-05-04T10:53:18.721Z,30.71
2023-05-04T10:56:23.063Z,30.97
2023-05-04T10:59:25.720Z,33.17
2023-05-04T11:02:30.975Z,33.21
2023-05-04T11:05:45.609Z,31.31
2023-05-04T11:08:58.367Z,29.29
2023-05-04T11:12:01.199Z,30.97
2023-05-04T11:15:09.134Z,31.46
2023-05-04T11:18:11.884Z,31.73
2023-05-04T11:21:24.755Z,33.89
2023-05-04T11:24:28.825Z,33.41
2023-05-04T11:27:31.714Z,33.33
2023-05-04T11:30:35.742Z,31.49
2023-05-04T11:33:38.731Z,33.48
2023-05-04T11:36:41.330Z,31.74
2023-05-04T11:39:44.480Z,32.09
2023-05-04T11:42:48.443Z,31.61
2023-05-04T11:45:52.699Z,31.01
2023-05-04T11:48:55.178Z,29.80
2023-05-04T11:52:08.700Z,28.93
2023-05-04T11:55:13.831Z,27.30
2023-05-04T11:58:25.011Z,26.77
2023-05-04T12:01:34.915Z,26.37
2023-05-04T12:04:40.024Z,25.99
2023-05-04T12:07:42.837Z,27.16
2023-05-04T12:10:47.593Z,29.26
2023-05-04T12:14:05.294Z,32.35
2023-05-04T12:17:08.077Z,29.73
2023-05-04T12:20:24.178Z,26.99
2023-05-04T12:23:27.237Z,25.25
2023-05-04T12:26:30.401Z,25.68
2023-05-04T12:29:33.221Z,27.62
2023-05-04T12:32:35.858Z,31.50
2023-05-04T12:35:38.812Z,33.54
2023-05-04T12:38:41.364Z,33.37
2023-05-04T12:41:44.215Z,33.88
2023-05-04T12:44:47.110Z,32.63
2023-05-04T12:47:52.800Z,31.14
2023-05-04T12:50:56.088Z,30.81
2023-05-04T12:53:59.015Z,27.95
2023-05-04T12:57:02.421Z,27.92
2023-05-04T13:00:09.507Z,30.31
2023-05-04T13:03:13.179Z,29.66
2023-05-04T13:06:16.305Z,30.62
2023-05-04T13:09:22.350Z,29.96
2023-05-04T13:12:27.795Z,29.52
2023-05-04T13:15:30.978Z,28.67
2023-05-04T13:18:33.829Z,33.55
2023-05-04T13:21:36.667Z,31.97
2023-05-04T13:24:42.232Z,27.45
2023-05-04T13:27:44.887Z,26.28
2023-05-04T13:30:48.347Z,25.11
2023-05-04T13:33:51.075Z,24.22
2023-05-04T13:36:54.307Z,24.33
2023-05-04T13:39:56.951Z,23.20
2023-05-04T13:43:01.762Z,23.57
2023-05-04T13:46:04.607Z,23.02
2023-05-04T13:49:07.681Z,22.50
2023-05-04T13:52:10.724Z,21.83
2023-05-04T13:55:14.336Z,21.62
2023-05-04T13:58:17.170Z,20.95
2023-05-04T14:01:20.444Z,21.20
2023-05-04T14:04:23.889Z,21.32
2023-05-04T14:07:26.462Z,22.15
2023-05-04T14:10:30.131Z,23.44
2023-05-04T14:13:32.847Z,26.19
2023-05-04T14:16:37.472Z,24.17
2023-05-04T14:19:40.380Z,24.92
2023-05-04T14:22:43.772Z,26.65
2023-05-04T14:25:53.386Z,27.83
2023-05-04T14:28:56.837Z,25.19
2023-05-04T14:31:59.555Z,24.84
2023-05-04T14:35:08.144Z,23.49
2023-05-04T14:38:11.864Z,23.17
2023-05-04T14:41:15.390Z,23.59
2023-05-04T14:44:17.989Z,22.74
2023-05-04T14:47:20.915Z,22.74
2023-05-04T14:50:26.838Z,22.28
2023-05-04T14:53:33.295Z,22.76
2023-05-04T14:56:36.250Z,22.46
2023-05-04T14:59:39.709Z,22.34
2023-05-04T15:02:42.565Z,22.10
2023-05-04T15:05:45.487Z,22.13
2023-05-04T15:08:48.115Z,21.18
2023-05-04T15:11:51.043Z,21.08
2023-05-04T15:14:53.629Z,20.88
2023-05-04T15:17:56.718Z,20.79
2023-05-04T15:21:01.429Z,21.46
2023-05-04T15:24:04.741Z,24.51
2023-05-04T15:27:07.326Z,23.74
2023-05-04T15:30:11.497Z,22.65
2023-05-04T15:33:14.261Z,22.16
2023-05-04T15:36:17.149Z,22.05
2023-05-04T15:39:19.728Z,22.25
2023-05-04T15:42:22.657Z,21.77
2023-05-04T15:45:25.789Z,21.59
2023-05-04T15:48:28.717Z,21.42
2023-05-04T15:51:31.965Z,21.62
2023-05-04T15:54:35.235Z,21.16
2023-05-04T15:57:37.776Z,20.77
2023-05-04T16:00:41.657Z,20.39
2023-05-04T16:03:45.817Z,20.60
2023-05-04T16:06:48.473Z,20.39
2023-05-04T16:09:51.720Z,20.02
2023-05-04T16:12:54.395Z,20.52
2023-05-04T16:15:58.030Z,20.92
2023-05-04T16:19:00.721Z,21.82
2023-05-04T16:22:03.574Z,23.70
2023-05-04T16:25:08.266Z,24.14
2023-05-04T16:28:12.564Z,23.58
2023-05-04T16:31:15.820Z,24.11
2023-05-04T16:34:18.812Z,24.78
2023-05-04T16:37:21.458Z,24.06
2023-05-04T16:40:25.119Z,23.90
2023-05-04T16:43:27.692Z,24.03
2023-05-04T16:46:30.497Z,22.05
2023-05-04T16:49:33.192Z,20.43
2023-05-04T16:52:36.486Z,19.81
2023-05-04T16:55:39.174Z,19.31
2023-05-04T16:58:41.966Z,19.01
2023-05-04T17:01:44.601Z,18.91
2023-05-04T17:04:47.685Z,18.72
2023-05-04T17:07:50.336Z,18.43
2023-05-04T17:10:58.910Z,18.50
2023-05-04T17:14:01.650Z,18.27
2023-05-04T17:17:04.523Z,18.20
2023-05-04T17:20:09.499Z,18.16
2023-05-04T17:23:14.628Z,17.97
2023-05-04T17:26:17.210Z,17.89
2023-05-04T17:29:20.158Z,17.77
2023-05-04T17:32:22.795Z,17.74
2023-05-04T17:35:26.743Z,17.65
2023-05-04T17:38:29.562Z,17.52
2023-05-04T17:41:33.077Z,17.48
2023-05-04T17:44:35.595Z,17.30
2023-05-04T17:47:38.485Z,17.22
2023-05-04T17:50:41.323Z,17.13
2023-05-04T17:53:44.400Z,17.02
2023-05-04T17:56:46.976Z,17.07
2023-05-04T17:59:49.986Z,16.96
2023-05-04T18:02:52.598Z,16.87
2023-05-04T18:05:55.469Z,16.82
2023-05-04T18:08:58.797Z,16.90
2023-05-04T18:12:01.628Z,16.75
2023-05-04T18:15:08.043Z,16.61
2023-05-04T18:18:11.232Z,16.45
2023-05-04T18:21:13.888Z,16.53
2023-05-04T18:24:17.128Z,16.42
2023-05-04T18:27:19.716Z,16.22
2023-05-04T18:30:25.574Z,16.06
2023-05-04T18:33:28.275Z,15.95
2023-05-04T18:36:32.570Z,15.80
2023-05-04T18:39:35.208Z,15.73
2023-05-04T18:42:38.011Z,15.68
2023-05-04T18:45:40.538Z,15.76
2023-05-04T18:48:43.358Z,15.81
2023-05-04T18:51:45.902Z,15.85
2023-05-04T18:54:49.664Z,15.73
2023-05-04T18:57:52.370Z,15.63
2023-05-04T19:00:55.968Z,15.52
2023-05-04T19:03:59.030Z,15.49
2023-05-04T19:07:01.942Z,15.52
2023-05-04T19:10:06.631Z,15.48
2023-05-04T19:13:09.989Z,15.43
2023-05-04T19:16:13.244Z,15.41
2023-05-04T19:19:16.092Z,15.46
2023-05-04T19:22:18.950Z,15.39
2023-05-04T19:25:33.764Z,15.36
2023-05-04T19:28:39.914Z,15.24
2023-05-04T19:31:42.979Z,15.27
2023-05-04T19:34:48.200Z,15.26
2023-05-04T19:37:50.743Z,15.30
2023-05-04T19:40:55.683Z,15.16
2023-05-04T19:43:58.273Z,15.14
2023-05-04T19:47:01.191Z,15.15
2023-05-04T19:50:04.142Z,15.13
2023-05-04T19:53:07.488Z,15.04
2023-05-04T19:56:10.082Z,15.00
2023-05-04T19:59:13.150Z,14.99
2023-05-04T20:02:15.893Z,14.90
2023-05-04T20:05:18.860Z,14.69
2023-05-04T20:08:21.428Z,14.52
2023-05-04T20:11:24.939Z,14.39
2023-05-04T20:14:27.553Z,14.30
2023-05-04T20:17:31.489Z,14.22
2023-05-04T20:20:35.391Z,14.12
2023-05-04T20:23:38.341Z,14.05
2023-05-04T20:26:41.117Z,14.01
2023-05-04T20:29:44.057Z,13.96
2023-05-04T20:32:48.650Z,13.88
2023-05-04T20:35:51.575Z,13.85
2023-05-04T20:38:54.404Z,13.88
2023-05-04T20:41:58.085Z,13.95
2023-05-04T20:45:00.956Z,14.08
2023-05-04T20:48:04.829Z,14.40
2023-05-04T20:51:14.377Z,14.53
2023-05-04T20:54:18.424Z,14.65
2023-05-04T20:57:21.016Z,14.85
2023-05-04T21:00:26.345Z,14.93
2023-05-04T21:03:28.996Z,14.96
2023-05-04T21:06:32.035Z,14.99
2023-05-04T21:09:34.677Z,15.08
2023-05-04T21:12:37.922Z,15.13
2023-05-04T21:15:40.651Z,15.18
2023-05-04T21:18:44.853Z,15.25
2023-05-04T21:21:47.396Z,15.18
2023-05-04T21:24:50.365Z,15.31
2023-05-04T21:27:52.861Z,15.37
2023-05-04T21:30:57.936Z,15.42
2023-05-04T21:34:00.511Z,15.45
2023-05-04T21:37:03.749Z,15.33
2023-05-04T21:40:09.301Z,15.29
2023-05-04T21:43:13.173Z,15.35
2023-05-04T21:46:15.715Z,15.21
2023-05-04T21:49:18.716Z,15.16
2023-05-04T21:52:21.700Z,15.08
2023-05-04T21:55:24.654Z,14.96
2023-05-04T21:58:27.748Z,14.99
2023-05-04T22:01:31.066Z,14.99
2023-05-04T22:04:33.894Z,14.99
2023-05-04T22:07:37.165Z,15.09
2023-05-04T22:10:40.332Z,15.00
2023-05-04T22:13:54.222Z,15.01
2023-05-04T22:16:57.669Z,15.02
2023-05-04T22:20:00.363Z,15.04
2023-05-04T22:23:03.482Z,14.93
2023-05-04T22:26:05.978Z,14.92
2023-05-04T22:29:08.796Z,14.99
2023-05-04T22:32:11.352Z,14.88
2023-05-04T22:35:14.173Z,14.82
2023-05-04T22:38:16.761Z,14.79
2023-05-04T22:41:19.614Z,14.72
2023-05-04T22:44:22.071Z,14.62
2023-05-04T22:47:25.147Z,14.51
2023-05-04T22:50:27.810Z,14.26
2023-05-04T22:53:30.825Z,14.18
2023-05-04T22:56:34.121Z,14.02
2023-05-04T22:59:37.058Z,14.03
2023-05-04T23:02:39.959Z,13.82
2023-05-04T23:05:43.358Z,13.70
2023-05-04T23:08:46.296Z,13.59
2023-05-04T23:11:49.473Z,13.43
2023-05-04T23:14:52.554Z,13.23
2023-05-04T23:17:55.499Z,13.07
2023-05-04T23:20:58.062Z,12.99
2023-05-04T23:24:00.928Z,12.93
2023-05-04T23:27:03.475Z,12.93
2023-05-04T23:30:07.498Z,12.80
2023-05-04T23:33:10.231Z,12.73
2023-05-04T23:36:13.090Z,12.63
2023-05-04T23:39:16.121Z,12.49
2023-05-04T23:42:19.145Z,12.43
2023-05-04T23:45:21.697Z,12.32
2023-05-04T23:48:24.572Z,12.30
2023-05-04T23:51:28.548Z,12.29
2023-05-04T23:54:31.886Z,12.17
2023-05-04T23:57:34.414Z,12.10
